sensor_id;sensor_type;location;lat;lon;timestamp;temperature;humidity
10312;DHT22;5201;48.776;9.128;2023-04-15T00:00:40;8.30;99.90
10312;DHT22;5201;48.776;9.128;2023-04-15T00:03:06;8.30;99.90
10312;DHT22;5201;48.776;9.128;2023-04-15T00:05:32;8.20;99.90
10312;DHT22;5201;48.776;9.128;2023-04-15T00:07:58;8.20;99.90
10312;DHT22;5201;48.776;9.128;2023-04-15T00:10:24;8.10;99.90
10312;DHT22;5201;48.776;9.128;2023-04-15T00:12:50;8.20;99.90
10312;DHT22;5201;48.776;9.128;2023-04-15T00:15:16;8.00;99.90
10312;DHT22;5201;48.776;9.128;2023-04-15T00:17:42;7.90;99.90
10312;DHT22;5201;48.776;9.128;2023-04-15T00:20:08;9.20;99.90
10312;DHT22;5201;48.776;9.128;2023-04-15T00:22:34;8.00;99.90
10312;DHT22;5201;48.776;9.128;2023-04-15T00:25:00;8.20;99.90
10312;DHT22;5201;48.776;9.128;2023-04-15T00:27:26;8.00;99.90
10312;DHT22;5201;48.776;9.128;2023-04-15T00:29:52;8.00;99.90
10312;DHT22;5201;48.776;9.128;2023-04-15T00:32:17;8.10;99.90
10312;DHT22;5201;48.776;9.128;2023-04-15T00:34:43;8.10;99.90
10312;DHT22;5201;48.776;9.128;2023-04-15T00:37:09;7.90;99.90
10312;DHT22;5201;48.776;9.128;2023-04-15T00:39:35;7.90;99.90
10312;DHT22;5201;48.776;9.128;2023-04-15T00:42:03;7.90;99.90
10312;DHT22;5201;48.776;9.128;2023-04-15T00:44:29;7.90;99.90
10312;DHT22;5201;48.776;9.128;2023-04-15T00:46:54;7.80;99.90
10312;DHT22;5201;48.776;9.128;2023-04-15T00:49:21;7.80;99.90
10312;DHT22;5201;48.776;9.128;2023-04-15T00:51:47;7.80;99.90
10312;DHT22;5201;48.776;9.128;2023-04-15T00:54:13;7.90;99.90
10312;DHT22;5201;48.776;9.128;2023-04-15T00:56:38;7.90;99.90
10312;DHT22;5201;48.776;9.128;2023-04-15T00:59:05;7.90;99.90
10312;DHT22;5201;48.776;9.128;2023-04-15T01:01:33;7.80;99.90
10312;DHT22;5201;48.776;9.128;2023-04-15T01:06:27;7.40;99.90
10312;DHT22;5201;48.776;9.128;2023-04-15T01:08:54;7.40;99.90
10312;DHT22;5201;48.776;9.128;2023-04-15T01:11:20;7.30;99.90
10312;DHT22;5201;48.776;9.128;2023-04-15T01:13:48;7.40;99.90
10312;DHT22;5201;48.776;9.128;2023-04-15T01:16:14;7.40;99.90
10312;DHT22;5201;48.776;9.128;2023-04-15T01:18:41;7.40;99.90
10312;DHT22;5201;48.776;9.128;2023-04-15T01:21:06;7.50;99.90
10312;DHT22;5201;48.776;9.128;2023-04-15T01:23:34;7.50;99.90
10312;DHT22;5201;48.776;9.128;2023-04-15T01:26:02;7.60;99.90
10312;DHT22;5201;48.776;9.128;2023-04-15T01:28:28;7.50;99.90
10312;DHT22;5201;48.776;9.128;2023-04-15T01:31:13;7.50;99.90
10312;DHT22;5201;48.776;9.128;2023-04-15T01:33:40;7.50;99.90
10312;DHT22;5201;48.776;9.128;2023-04-15T01:36:08;7.30;99.90
10312;DHT22;5201;48.776;9.128;2023-04-15T01:38:35;7.20;99.90
10312;DHT22;5201;48.776;9.128;2023-04-15T01:41:01;7.10;99.90
10312;DHT22;5201;48.776;9.128;2023-04-15T01:43:28;7.00;99.90
10312;DHT22;5201;48.776;9.128;2023-04-15T01:45:54;7.10;99.90
10312;DHT22;5201;48.776;9.128;2023-04-15T01:48:20;7.20;99.90
10312;DHT22;5201;48.776;9.128;2023-04-15T01:50:45;7.20;99.90
10312;DHT22;5201;48.776;9.128;2023-04-15T01:53:11;7.00;99.90
10312;DHT22;5201;48.776;9.128;2023-04-15T01:55:37;7.00;99.90
10312;DHT22;5201;48.776;9.128;2023-04-15T01:58:02;7.10;99.90
10312;DHT22;5201;48.776;9.128;2023-04-15T02:00:28;7.10;99.90
10312;DHT22;5201;48.776;9.128;2023-04-15T02:02:55;7.40;99.90
10312;DHT22;5201;48.776;9.128;2023-04-15T02:05:20;7.10;99.90
10312;DHT22;5201;48.776;9.128;2023-04-15T02:07:46;7.00;99.90
10312;DHT22;5201;48.776;9.128;2023-04-15T02:10:12;7.10;99.90
10312;DHT22;5201;48.776;9.128;2023-04-15T02:12:38;7.00;99.90
10312;DHT22;5201;48.776;9.128;2023-04-15T02:15:05;6.90;99.90
10312;DHT22;5201;48.776;9.128;2023-04-15T02:17:33;6.90;99.90
10312;DHT22;5201;48.776;9.128;2023-04-15T02:20:00;6.90;99.90
10312;DHT22;5201;48.776;9.128;2023-04-15T02:22:25;6.90;99.90
10312;DHT22;5201;48.776;9.128;2023-04-15T02:24:51;6.90;99.90
10312;DHT22;5201;48.776;9.128;2023-04-15T02:27:17;6.90;99.90
10312;DHT22;5201;48.776;9.128;2023-04-15T02:29:44;7.00;99.90
10312;DHT22;5201;48.776;9.128;2023-04-15T02:32:11;6.90;99.90
10312;DHT22;5201;48.776;9.128;2023-04-15T02:34:40;6.90;99.90
10312;DHT22;5201;48.776;9.128;2023-04-15T02:37:08;6.90;99.90
10312;DHT22;5201;48.776;9.128;2023-04-15T02:39:34;6.80;99.90
10312;DHT22;5201;48.776;9.128;2023-04-15T02:42:00;6.80;99.90
10312;DHT22;5201;48.776;9.128;2023-04-15T02:44:28;6.90;99.90
10312;DHT22;5201;48.776;9.128;2023-04-15T02:46:54;6.90;99.90
10312;DHT22;5201;48.776;9.128;2023-04-15T02:49:20;6.80;99.90
10312;DHT22;5201;48.776;9.128;2023-04-15T02:51:46;6.90;99.90
10312;DHT22;5201;48.776;9.128;2023-04-15T02:54:17;6.70;99.90
10312;DHT22;5201;48.776;9.128;2023-04-15T02:56:43;6.70;99.90
10312;DHT22;5201;48.776;9.128;2023-04-15T02:59:09;6.70;99.90
10312;DHT22;5201;48.776;9.128;2023-04-15T03:01:35;6.70;99.90
10312;DHT22;5201;48.776;9.128;2023-04-15T03:04:00;6.80;99.90
10312;DHT22;5201;48.776;9.128;2023-04-15T03:06:26;6.80;99.90
10312;DHT22;5201;48.776;9.128;2023-04-15T03:08:51;6.70;99.90
10312;DHT22;5201;48.776;9.128;2023-04-15T03:11:18;6.80;99.90
10312;DHT22;5201;48.776;9.128;2023-04-15T03:13:43;6.80;99.90
10312;DHT22;5201;48.776;9.128;2023-04-15T03:16:09;6.80;99.90
10312;DHT22;5201;48.776;9.128;2023-04-15T03:18:35;6.80;99.90
10312;DHT22;5201;48.776;9.128;2023-04-15T03:21:01;6.80;99.90
10312;DHT22;5201;48.776;9.128;2023-04-15T03:23:27;6.80;99.90
10312;DHT22;5201;48.776;9.128;2023-04-15T03:25:53;6.80;99.90
10312;DHT22;5201;48.776;9.128;2023-04-15T03:28:21;6.80;99.90
10312;DHT22;5201;48.776;9.128;2023-04-15T03:30:47;6.70;99.90
10312;DHT22;5201;48.776;9.128;2023-04-15T03:33:12;6.70;99.90
10312;DHT22;5201;48.776;9.128;2023-04-15T03:35:38;6.50;99.90
10312;DHT22;5201;48.776;9.128;2023-04-15T03:38:03;6.60;99.90
10312;DHT22;5201;48.776;9.128;2023-04-15T03:40:29;6.60;99.90
10312;DHT22;5201;48.776;9.128;2023-04-15T03:42:55;6.50;99.90
10312;DHT22;5201;48.776;9.128;2023-04-15T03:45:20;6.50;99.90
10312;DHT22;5201;48.776;9.128;2023-04-15T03:47:46;6.30;99.90
10312;DHT22;5201;48.776;9.128;2023-04-15T03:50:12;6.40;99.90
10312;DHT22;5201;48.776;9.128;2023-04-15T03:52:37;6.80;99.90
10312;DHT22;5201;48.776;9.128;2023-04-15T03:55:03;6.40;99.90
10312;DHT22;5201;48.776;9.128;2023-04-15T03:57:29;6.50;99.90
10312;DHT22;5201;48.776;9.128;2023-04-15T03:59:55;6.50;99.90
10312;DHT22;5201;48.776;9.128;2023-04-15T04:02:21;6.30;99.90
10312;DHT22;5201;48.776;9.128;2023-04-15T04:04:47;6.30;99.90
10312;DHT22;5201;48.776;9.128;2023-04-15T04:07:16;6.30;99.90
10312;DHT22;5201;48.776;9.128;2023-04-15T04:09:42;6.30;99.90
10312;DHT22;5201;48.776;9.128;2023-04-15T04:12:08;7.90;99.90
10312;DHT22;5201;48.776;9.128;2023-04-15T04:14:33;6.50;99.90
10312;DHT22;5201;48.776;9.128;2023-04-15T04:16:59;6.30;99.90
10312;DHT22;5201;48.776;9.128;2023-04-15T04:19:25;6.30;99.90
10312;DHT22;5201;48.776;9.128;2023-04-15T04:21:51;6.10;99.90
10312;DHT22;5201;48.776;9.128;2023-04-15T04:24:17;6.00;99.90
10312;DHT22;5201;48.776;9.128;2023-04-15T04:26:42;5.90;99.90
10312;DHT22;5201;48.776;9.128;2023-04-15T04:29:08;5.80;99.90
10312;DHT22;5201;48.776;9.128;2023-04-15T04:31:33;5.80;99.90
10312;DHT22;5201;48.776;9.128;2023-04-15T04:33:59;5.90;99.90
10312;DHT22;5201;48.776;9.128;2023-04-15T04:36:25;5.90;99.90
10312;DHT22;5201;48.776;9.128;2023-04-15T04:38:51;5.90;99.90
10312;DHT22;5201;48.776;9.128;2023-04-15T04:41:17;5.70;99.90
10312;DHT22;5201;48.776;9.128;2023-04-15T04:43:42;5.70;99.90
10312;DHT22;5201;48.776;9.128;2023-04-15T04:46:08;5.80;99.90
10312;DHT22;5201;48.776;9.128;2023-04-15T04:48:34;5.90;99.90
10312;DHT22;5201;48.776;9.128;2023-04-15T04:51:00;5.80;99.90
10312;DHT22;5201;48.776;9.128;2023-04-15T04:53:26;5.90;99.90
10312;DHT22;5201;48.776;9.128;2023-04-15T04:55:52;5.90;99.90
10312;DHT22;5201;48.776;9.128;2023-04-15T04:58:18;5.90;99.90
10312;DHT22;5201;48.776;9.128;2023-04-15T05:00:43;5.90;99.90
10312;DHT22;5201;48.776;9.128;2023-04-15T05:03:09;5.90;99.90
10312;DHT22;5201;48.776;9.128;2023-04-15T05:05:35;6.00;99.90
10312;DHT22;5201;48.776;9.128;2023-04-15T05:08:03;5.90;99.90
10312;DHT22;5201;48.776;9.128;2023-04-15T05:10:30;5.90;99.90
10312;DHT22;5201;48.776;9.128;2023-04-15T05:12:56;5.90;99.90
10312;DHT22;5201;48.776;9.128;2023-04-15T05:15:22;5.80;99.90
10312;DHT22;5201;48.776;9.128;2023-04-15T05:17:47;5.70;99.90
10312;DHT22;5201;48.776;9.128;2023-04-15T05:20:13;5.50;99.90
10312;DHT22;5201;48.776;9.128;2023-04-15T05:22:38;5.40;99.90
10312;DHT22;5201;48.776;9.128;2023-04-15T05:25:04;5.50;99.90
10312;DHT22;5201;48.776;9.128;2023-04-15T05:27:30;5.60;99.90
10312;DHT22;5201;48.776;9.128;2023-04-15T05:29:56;5.60;99.90
10312;DHT22;5201;48.776;9.128;2023-04-15T05:32:21;5.70;99.90
10312;DHT22;5201;48.776;9.128;2023-04-15T05:34:47;6.00;99.90
10312;DHT22;5201;48.776;9.128;2023-04-15T05:37:12;6.30;99.90
10312;DHT22;5201;48.776;9.128;2023-04-15T05:39:38;6.50;99.90
10312;DHT22;5201;48.776;9.128;2023-04-15T05:42:03;6.70;99.90
10312;DHT22;5201;48.776;9.128;2023-04-15T05:44:30;6.80;99.90
10312;DHT22;5201;48.776;9.128;2023-04-15T05:46:56;7.00;99.90
10312;DHT22;5201;48.776;9.128;2023-04-15T05:49:22;7.00;99.90
10312;DHT22;5201;48.776;9.128;2023-04-15T05:51:48;7.00;99.90
10312;DHT22;5201;48.776;9.128;2023-04-15T05:54:14;7.10;99.90
10312;DHT22;5201;48.776;9.128;2023-04-15T05:56:39;7.30;99.90
10312;DHT22;5201;48.776;9.128;2023-04-15T05:59:05;7.30;99.90
10312;DHT22;5201;48.776;9.128;2023-04-15T06:01:32;7.20;99.90
10312;DHT22;5201;48.776;9.128;2023-04-15T06:03:58;7.50;99.90
10312;DHT22;5201;48.776;9.128;2023-04-15T06:06:24;8.00;99.90
10312;DHT22;5201;48.776;9.128;2023-04-15T06:08:51;7.90;99.90
10312;DHT22;5201;48.776;9.128;2023-04-15T06:11:18;8.10;99.90
10312;DHT22;5201;48.776;9.128;2023-04-15T06:13:44;8.60;99.90
10312;DHT22;5201;48.776;9.128;2023-04-15T06:16:10;8.50;99.90
10312;DHT22;5201;48.776;9.128;2023-04-15T06:18:36;8.80;99.90
10312;DHT22;5201;48.776;9.128;2023-04-15T06:21:01;9.00;99.90
10312;DHT22;5201;48.776;9.128;2023-04-15T06:23:27;9.20;99.90
10312;DHT22;5201;48.776;9.128;2023-04-15T06:25:52;9.50;99.90
10312;DHT22;5201;48.776;9.128;2023-04-15T06:28:18;9.90;99.90
10312;DHT22;5201;48.776;9.128;2023-04-15T06:30:44;10.40;99.90
10312;DHT22;5201;48.776;9.128;2023-04-15T06:33:09;10.80;99.90
10312;DHT22;5201;48.776;9.128;2023-04-15T06:35:35;11.30;99.90
10312;DHT22;5201;48.776;9.128;2023-04-15T06:38:01;11.60;99.90
10312;DHT22;5201;48.776;9.128;2023-04-15T06:40:26;12.00;99.90
10312;DHT22;5201;48.776;9.128;2023-04-15T06:42:52;12.10;99.90
10312;DHT22;5201;48.776;9.128;2023-04-15T06:45:18;12.30;99.90
10312;DHT22;5201;48.776;9.128;2023-04-15T06:47:43;12.40;99.90
10312;DHT22;5201;48.776;9.128;2023-04-15T06:50:09;12.30;99.90
10312;DHT22;5201;48.776;9.128;2023-04-15T06:52:35;12.60;99.90
10312;DHT22;5201;48.776;9.128;2023-04-15T06:55:01;13.10;99.90
10312;DHT22;5201;48.776;9.128;2023-04-15T06:57:27;13.30;99.90
10312;DHT22;5201;48.776;9.128;2023-04-15T06:59:53;13.70;99.60
10312;DHT22;5201;48.776;9.128;2023-04-15T07:02:19;14.00;99.00
10312;DHT22;5201;48.776;9.128;2023-04-15T07:04:45;14.00;98.70
10312;DHT22;5201;48.776;9.128;2023-04-15T07:07:11;14.00;98.50
10312;DHT22;5201;48.776;9.128;2023-04-15T07:09:36;14.20;98.60
10312;DHT22;5201;48.776;9.128;2023-04-15T07:12:03;14.70;97.90
10312;DHT22;5201;48.776;9.128;2023-04-15T07:14:28;15.10;97.70
10312;DHT22;5201;48.776;9.128;2023-04-15T07:16:54;15.90;96.60
10312;DHT22;5201;48.776;9.128;2023-04-15T07:19:20;16.90;95.50
10312;DHT22;5201;48.776;9.128;2023-04-15T07:21:46;17.90;94.40
10312;DHT22;5201;48.776;9.128;2023-04-15T07:24:12;18.30;93.10
10312;DHT22;5201;48.776;9.128;2023-04-15T07:26:41;18.40;92.80
10312;DHT22;5201;48.776;9.128;2023-04-15T07:29:06;18.50;92.60
10312;DHT22;5201;48.776;9.128;2023-04-15T07:31:32;18.30;92.60
10312;DHT22;5201;48.776;9.128;2023-04-15T07:33:58;18.50;92.60
10312;DHT22;5201;48.776;9.128;2023-04-15T07:36:24;18.70;91.50
10312;DHT22;5201;48.776;9.128;2023-04-15T07:38:49;18.60;91.40
10312;DHT22;5201;48.776;9.128;2023-04-15T07:41:15;18.80;91.40
10312;DHT22;5201;48.776;9.128;2023-04-15T07:43:40;19.50;91.10
10312;DHT22;5201;48.776;9.128;2023-04-15T07:46:07;19.80;90.30
10312;DHT22;5201;48.776;9.128;2023-04-15T07:48:32;19.70;90.50
10312;DHT22;5201;48.776;9.128;2023-04-15T07:50:58;19.90;90.10
10312;DHT22;5201;48.776;9.128;2023-04-15T07:53:24;19.40;89.10
10312;DHT22;5201;48.776;9.128;2023-04-15T07:55:50;18.70;89.10
10312;DHT22;5201;48.776;9.128;2023-04-15T07:58:19;17.40;90.70
10312;DHT22;5201;48.776;9.128;2023-04-15T08:00:44;16.70;91.60
10312;DHT22;5201;48.776;9.128;2023-04-15T08:03:10;16.40;91.40
10312;DHT22;5201;48.776;9.128;2023-04-15T08:05:36;16.00;92.10
10312;DHT22;5201;48.776;9.128;2023-04-15T08:08:01;16.00;92.00
10312;DHT22;5201;48.776;9.128;2023-04-15T08:10:28;15.60;92.00
10312;DHT22;5201;48.776;9.128;2023-04-15T08:12:55;15.30;91.80
10312;DHT22;5201;48.776;9.128;2023-04-15T08:15:20;15.20;91.80
10312;DHT22;5201;48.776;9.128;2023-04-15T08:17:46;15.30;91.50
10312;DHT22;5201;48.776;9.128;2023-04-15T08:20:12;15.90;90.60
10312;DHT22;5201;48.776;9.128;2023-04-15T08:22:38;16.30;90.30
10312;DHT22;5201;48.776;9.128;2023-04-15T08:25:04;16.90;88.80
10312;DHT22;5201;48.776;9.128;2023-04-15T08:27:30;17.50;87.70
10312;DHT22;5201;48.776;9.128;2023-04-15T08:29:56;18.20;87.20
10312;DHT22;5201;48.776;9.128;2023-04-15T08:32:21;18.60;85.40
10312;DHT22;5201;48.776;9.128;2023-04-15T08:34:47;18.90;85.20
10312;DHT22;5201;48.776;9.128;2023-04-15T08:37:13;18.60;85.40
10312;DHT22;5201;48.776;9.128;2023-04-15T08:39:38;18.50;86.30
10312;DHT22;5201;48.776;9.128;2023-04-15T08:42:11;18.40;85.00
10312;DHT22;5201;48.776;9.128;2023-04-15T08:44:41;18.50;85.50
10312;DHT22;5201;48.776;9.128;2023-04-15T08:47:09;18.60;85.70
10312;DHT22;5201;48.776;9.128;2023-04-15T08:49:39;18.60;85.80
10312;DHT22;5201;48.776;9.128;2023-04-15T08:52:05;18.30;84.40
10312;DHT22;5201;48.776;9.128;2023-04-15T08:54:32;18.40;85.30
10312;DHT22;5201;48.776;9.128;2023-04-15T08:56:58;18.50;88.10
10312;DHT22;5201;48.776;9.128;2023-04-15T08:59:24;18.20;85.60
10312;DHT22;5201;48.776;9.128;2023-04-15T09:01:50;17.80;85.20
10312;DHT22;5201;48.776;9.128;2023-04-15T09:04:16;17.50;86.60
10312;DHT22;5201;48.776;9.128;2023-04-15T09:06:42;17.00;85.40
10312;DHT22;5201;48.776;9.128;2023-04-15T09:09:08;17.30;87.10
10312;DHT22;5201;48.776;9.128;2023-04-15T09:11:34;17.80;88.10
10312;DHT22;5201;48.776;9.128;2023-04-15T09:14:00;16.40;86.90
10312;DHT22;5201;48.776;9.128;2023-04-15T09:16:26;17.00;90.20
10312;DHT22;5201;48.776;9.128;2023-04-15T09:18:52;16.80;89.20
10312;DHT22;5201;48.776;9.128;2023-04-15T09:21:18;17.50;89.40
10312;DHT22;5201;48.776;9.128;2023-04-15T09:24:02;18.10;88.50
10312;DHT22;5201;48.776;9.128;2023-04-15T09:26:36;18.70;87.70
10312;DHT22;5201;48.776;9.128;2023-04-15T09:29:06;17.40;87.50
10312;DHT22;5201;48.776;9.128;2023-04-15T09:31:32;17.10;87.20
10312;DHT22;5201;48.776;9.128;2023-04-15T09:33:58;16.80;88.20
10312;DHT22;5201;48.776;9.128;2023-04-15T09:36:24;17.50;89.60
10312;DHT22;5201;48.776;9.128;2023-04-15T09:38:59;18.00;87.50
10312;DHT22;5201;48.776;9.128;2023-04-15T09:41:25;18.00;87.60
10312;DHT22;5201;48.776;9.128;2023-04-15T09:43:51;18.40;86.40
10312;DHT22;5201;48.776;9.128;2023-04-15T09:46:17;18.50;86.40
10312;DHT22;5201;48.776;9.128;2023-04-15T09:48:43;18.40;86.50
10312;DHT22;5201;48.776;9.128;2023-04-15T09:51:08;18.00;86.50
10312;DHT22;5201;48.776;9.128;2023-04-15T09:53:35;17.40;86.00
10312;DHT22;5201;48.776;9.128;2023-04-15T09:56:02;16.90;87.10
10312;DHT22;5201;48.776;9.128;2023-04-15T09:58:30;16.70;88.50
10312;DHT22;5201;48.776;9.128;2023-04-15T10:00:57;16.60;88.80
10312;DHT22;5201;48.776;9.128;2023-04-15T10:03:28;16.80;88.50
10312;DHT22;5201;48.776;9.128;2023-04-15T10:05:56;16.00;88.40
10312;DHT22;5201;48.776;9.128;2023-04-15T10:08:23;15.90;89.00
10312;DHT22;5201;48.776;9.128;2023-04-15T10:10:50;15.80;89.20
10312;DHT22;5201;48.776;9.128;2023-04-15T10:13:23;15.70;87.70
10312;DHT22;5201;48.776;9.128;2023-04-15T10:15:57;15.70;89.80
10312;DHT22;5201;48.776;9.128;2023-04-15T10:18:25;15.70;90.50
10312;DHT22;5201;48.776;9.128;2023-04-15T10:20:52;15.70;90.50
10312;DHT22;5201;48.776;9.128;2023-04-15T10:23:19;15.40;90.30
10312;DHT22;5201;48.776;9.128;2023-04-15T10:25:46;15.30;91.70
10312;DHT22;5201;48.776;9.128;2023-04-15T10:28:14;14.80;90.80
10312;DHT22;5201;48.776;9.128;2023-04-15T10:30:42;14.20;90.70
10312;DHT22;5201;48.776;9.128;2023-04-15T10:33:08;13.90;89.80
10312;DHT22;5201;48.776;9.128;2023-04-15T10:35:35;13.80;91.60
10312;DHT22;5201;48.776;9.128;2023-04-15T10:38:01;14.00;91.50
10312;DHT22;5201;48.776;9.128;2023-04-15T10:40:30;14.50;91.60
10312;DHT22;5201;48.776;9.128;2023-04-15T10:43:01;14.30;90.40
10312;DHT22;5201;48.776;9.128;2023-04-15T10:45:36;14.40;91.70
10312;DHT22;5201;48.776;9.128;2023-04-15T10:48:03;14.90;91.60
10312;DHT22;5201;48.776;9.128;2023-04-15T10:50:31;15.40;91.00
10312;DHT22;5201;48.776;9.128;2023-04-15T10:52:57;15.70;91.80
10312;DHT22;5201;48.776;9.128;2023-04-15T10:55:30;16.10;90.80
10312;DHT22;5201;48.776;9.128;2023-04-15T10:58:00;15.90;90.90
10312;DHT22;5201;48.776;9.128;2023-04-15T11:00:31;15.60;90.60
10312;DHT22;5201;48.776;9.128;2023-04-15T11:08:11;14.90;92.10
10312;DHT22;5201;48.776;9.128;2023-04-15T11:13:04;14.40;92.20
10312;DHT22;5201;48.776;9.128;2023-04-15T11:15:37;14.10;91.70
10312;DHT22;5201;48.776;9.128;2023-04-15T11:18:20;14.10;91.60
10312;DHT22;5201;48.776;9.128;2023-04-15T11:20:54;14.10;91.70
10312;DHT22;5201;48.776;9.128;2023-04-15T11:23:41;14.30;91.30
10312;DHT22;5201;48.776;9.128;2023-04-15T11:26:13;14.80;91.70
10312;DHT22;5201;48.776;9.128;2023-04-15T11:28:43;15.30;91.20
10312;DHT22;5201;48.776;9.128;2023-04-15T11:31:11;15.40;90.90
10312;DHT22;5201;48.776;9.128;2023-04-15T11:33:57;15.80;90.60
10312;DHT22;5201;48.776;9.128;2023-04-15T11:36:24;15.50;89.90
10312;DHT22;5201;48.776;9.128;2023-04-15T11:38:51;15.50;90.00
10312;DHT22;5201;48.776;9.128;2023-04-15T11:41:23;15.00;90.00
10312;DHT22;5201;48.776;9.128;2023-04-15T11:43:49;15.00;91.60
10312;DHT22;5201;48.776;9.128;2023-04-15T11:46:15;15.00;91.90
10312;DHT22;5201;48.776;9.128;2023-04-15T11:48:43;15.00;91.70
10312;DHT22;5201;48.776;9.128;2023-04-15T11:51:11;15.80;92.50
10312;DHT22;5201;48.776;9.128;2023-04-15T11:53:44;14.50;92.90
10312;DHT22;5201;48.776;9.128;2023-04-15T11:56:20;14.10;92.80
10312;DHT22;5201;48.776;9.128;2023-04-15T11:58:46;14.00;93.00
10312;DHT22;5201;48.776;9.128;2023-04-15T12:01:12;13.80;93.20
10312;DHT22;5201;48.776;9.128;2023-04-15T12:03:44;14.10;93.20
10312;DHT22;5201;48.776;9.128;2023-04-15T12:06:18;14.00;93.30
10312;DHT22;5201;48.776;9.128;2023-04-15T12:09:07;14.20;93.30
10312;DHT22;5201;48.776;9.128;2023-04-15T12:11:46;14.50;92.40
10312;DHT22;5201;48.776;9.128;2023-04-15T12:14:33;14.80;90.80
10312;DHT22;5201;48.776;9.128;2023-04-15T12:17:02;15.00;90.80
10312;DHT22;5201;48.776;9.128;2023-04-15T12:19:30;15.00;91.10
10312;DHT22;5201;48.776;9.128;2023-04-15T12:21:59;15.00;91.40
10312;DHT22;5201;48.776;9.128;2023-04-15T12:24:25;15.40;91.50
10312;DHT22;5201;48.776;9.128;2023-04-15T12:26:53;15.30;90.40
10312;DHT22;5201;48.776;9.128;2023-04-15T12:29:19;15.60;90.20
10312;DHT22;5201;48.776;9.128;2023-04-15T12:34:38;14.90;92.40
10312;DHT22;5201;48.776;9.128;2023-04-15T12:37:06;14.20;93.50
10312;DHT22;5201;48.776;9.128;2023-04-15T12:39:35;14.10;94.70
10312;DHT22;5201;48.776;9.128;2023-04-15T12:42:03;13.10;95.10
10312;DHT22;5201;48.776;9.128;2023-04-15T12:44:28;12.70;97.10
10312;DHT22;5201;48.776;9.128;2023-04-15T12:46:55;12.40;97.70
10312;DHT22;5201;48.776;9.128;2023-04-15T12:49:21;12.00;98.40
10312;DHT22;5201;48.776;9.128;2023-04-15T12:51:51;12.10;98.40
10312;DHT22;5201;48.776;9.128;2023-04-15T12:54:18;12.00;98.30
10312;DHT22;5201;48.776;9.128;2023-04-15T12:56:47;12.20;99.50
10312;DHT22;5201;48.776;9.128;2023-04-15T12:59:14;12.00;99.90
10312;DHT22;5201;48.776;9.128;2023-04-15T13:01:41;12.30;99.90
10312;DHT22;5201;48.776;9.128;2023-04-15T13:04:06;12.10;99.90
10312;DHT22;5201;48.776;9.128;2023-04-15T13:06:32;12.10;98.70
10312;DHT22;5201;48.776;9.128;2023-04-15T13:08:59;12.40;99.90
10312;DHT22;5201;48.776;9.128;2023-04-15T13:11:26;12.70;99.10
10312;DHT22;5201;48.776;9.128;2023-04-15T13:13:51;13.10;97.50
10312;DHT22;5201;48.776;9.128;2023-04-15T13:16:18;13.20;97.10
10312;DHT22;5201;48.776;9.128;2023-04-15T13:18:43;13.00;96.10
10312;DHT22;5201;48.776;9.128;2023-04-15T13:21:11;13.30;96.70
10312;DHT22;5201;48.776;9.128;2023-04-15T13:23:37;13.50;96.70
10312;DHT22;5201;48.776;9.128;2023-04-15T13:26:03;13.30;95.40
10312;DHT22;5201;48.776;9.128;2023-04-15T13:28:28;13.80;95.40
10312;DHT22;5201;48.776;9.128;2023-04-15T13:30:54;13.00;94.40
10312;DHT22;5201;48.776;9.128;2023-04-15T13:33:19;13.10;95.10
10312;DHT22;5201;48.776;9.128;2023-04-15T13:35:45;13.30;94.90
10312;DHT22;5201;48.776;9.128;2023-04-15T13:38:11;13.10;93.60
10312;DHT22;5201;48.776;9.128;2023-04-15T13:40:36;13.80;94.30
10312;DHT22;5201;48.776;9.128;2023-04-15T13:43:02;13.30;94.30
10312;DHT22;5201;48.776;9.128;2023-04-15T13:45:28;13.60;93.50
10312;DHT22;5201;48.776;9.128;2023-04-15T13:47:55;13.50;92.80
10312;DHT22;5201;48.776;9.128;2023-04-15T13:50:21;12.80;93.30
10312;DHT22;5201;48.776;9.128;2023-04-15T13:52:46;13.40;92.60
10312;DHT22;5201;48.776;9.128;2023-04-15T13:55:12;14.00;92.80
10312;DHT22;5201;48.776;9.128;2023-04-15T13:57:38;13.40;92.50
10312;DHT22;5201;48.776;9.128;2023-04-15T14:00:03;13.30;91.00
10312;DHT22;5201;48.776;9.128;2023-04-15T14:02:30;13.40;91.20
10312;DHT22;5201;48.776;9.128;2023-04-15T14:04:56;13.50;91.20
10312;DHT22;5201;48.776;9.128;2023-04-15T14:07:22;13.50;90.60
10312;DHT22;5201;48.776;9.128;2023-04-15T14:09:47;13.50;91.20
10312;DHT22;5201;48.776;9.128;2023-04-15T14:12:13;13.50;91.30
10312;DHT22;5201;48.776;9.128;2023-04-15T14:14:39;13.60;91.50
10312;DHT22;5201;48.776;9.128;2023-04-15T14:17:05;13.20;91.40
10312;DHT22;5201;48.776;9.128;2023-04-15T14:19:31;13.00;85.20
10312;DHT22;5201;48.776;9.128;2023-04-15T14:21:57;13.00;84.40
10312;DHT22;5201;48.776;9.128;2023-04-15T14:24:23;13.00;85.20
10312;DHT22;5201;48.776;9.128;2023-04-15T14:26:49;13.00;86.20
10312;DHT22;5201;48.776;9.128;2023-04-15T14:29:15;12.80;87.30
10312;DHT22;5201;48.776;9.128;2023-04-15T14:31:41;12.50;88.80
10312;DHT22;5201;48.776;9.128;2023-04-15T14:34:08;12.30;89.70
10312;DHT22;5201;48.776;9.128;2023-04-15T14:36:34;13.00;90.60
10312;DHT22;5201;48.776;9.128;2023-04-15T14:39:00;12.80;91.00
10312;DHT22;5201;48.776;9.128;2023-04-15T14:41:25;12.60;90.50
10312;DHT22;5201;48.776;9.128;2023-04-15T14:43:51;12.50;90.80
10312;DHT22;5201;48.776;9.128;2023-04-15T14:46:17;12.30;90.90
10312;DHT22;5201;48.776;9.128;2023-04-15T14:48:42;12.40;91.10
10312;DHT22;5201;48.776;9.128;2023-04-15T14:51:08;12.30;91.20
10312;DHT22;5201;48.776;9.128;2023-04-15T14:53:34;12.30;91.10
10312;DHT22;5201;48.776;9.128;2023-04-15T14:55:59;12.20;91.40
10312;DHT22;5201;48.776;9.128;2023-04-15T14:58:25;12.10;91.80
10312;DHT22;5201;48.776;9.128;2023-04-15T15:00:50;12.00;91.80
10312;DHT22;5201;48.776;9.128;2023-04-15T15:03:16;11.80;92.50
10312;DHT22;5201;48.776;9.128;2023-04-15T15:05:44;11.80;92.80
10312;DHT22;5201;48.776;9.128;2023-04-15T15:08:10;11.90;93.00
10312;DHT22;5201;48.776;9.128;2023-04-15T15:10:36;11.30;93.50
10312;DHT22;5201;48.776;9.128;2023-04-15T15:13:03;11.00;94.00
10312;DHT22;5201;48.776;9.128;2023-04-15T15:15:29;11.20;95.10
10312;DHT22;5201;48.776;9.128;2023-04-15T15:17:55;11.20;95.80
10312;DHT22;5201;48.776;9.128;2023-04-15T15:20:22;11.20;96.30
10312;DHT22;5201;48.776;9.128;2023-04-15T15:22:47;11.30;96.00
10312;DHT22;5201;48.776;9.128;2023-04-15T15:25:13;11.30;96.40
10312;DHT22;5201;48.776;9.128;2023-04-15T15:27:39;11.40;95.70
10312;DHT22;5201;48.776;9.128;2023-04-15T15:30:05;11.40;95.60
10312;DHT22;5201;48.776;9.128;2023-04-15T15:32:31;11.40;96.20
10312;DHT22;5201;48.776;9.128;2023-04-15T15:34:56;11.60;96.00
10312;DHT22;5201;48.776;9.128;2023-04-15T15:37:22;11.30;96.00
10312;DHT22;5201;48.776;9.128;2023-04-15T15:39:48;11.40;96.00
10312;DHT22;5201;48.776;9.128;2023-04-15T15:42:15;11.40;96.20
10312;DHT22;5201;48.776;9.128;2023-04-15T15:44:41;11.50;95.80
10312;DHT22;5201;48.776;9.128;2023-04-15T15:47:06;11.60;96.00
10312;DHT22;5201;48.776;9.128;2023-04-15T15:49:32;12.20;95.60
10312;DHT22;5201;48.776;9.128;2023-04-15T15:51:58;11.90;95.30
10312;DHT22;5201;48.776;9.128;2023-04-15T15:54:24;11.80;95.20
10312;DHT22;5201;48.776;9.128;2023-04-15T15:56:50;11.90;95.20
10312;DHT22;5201;48.776;9.128;2023-04-15T15:59:15;11.80;94.90
10312;DHT22;5201;48.776;9.128;2023-04-15T16:01:42;11.80;94.80